North Andover, Massachusetts
Current Conditions -  °F | °C
As of 10:54 AM on Thursday 29 Jan 2015 (Local Time) from KLWM Reporting Station
Clear Clear  
Wind Chill: 22°   Ceiling: Unl
Heat Index: 22°   Visibility: 10mi
Dew Point:   Wind: 0mph
Humidity: 46%   Direction: NA
Pressure: 30.32"   Gusts: NA
Location:  42.7°N, 71.13°W
Report Text: KLWM 291554Z 00000KT 10SM CLR M06/M16 A3032 RMK AO2 SLP271 T10561156
Loading
Personal Weather Stations






























Interactive Weather Map New forecast layout! Learn more

10-Day Weather Forecast

Advertisements
Track Severe Weather on mobile